Map

Track Data

SID SEASON NUMBER BASIN SUBBASIN NAME ISO_TIME NATURE LAT LON WMO_WIND WMO_PRES WMO_AGENCY TRACK_TYPE DIST2LAND LANDFALL IFLAG USA_AGENCY USA_ATCF_ID USA_LAT USA_LON USA_RECORD USA_STATUS USA_WIND USA_PRES USA_SSHS USA_R34_NE USA_R34_SE USA_R34_SW USA_R34_NW USA_R50_NE USA_R50_SE USA_R50_SW USA_R50_NW USA_R64_NE USA_R64_SE USA_R64_SW USA_R64_NW USA_POCI USA_ROCI USA_RMW USA_EYE TOKYO_LAT TOKYO_LON TOKYO_GRADE TOKYO_WIND TOKYO_PRES TOKYO_R50_DIR TOKYO_R50_LONG TOKYO_R50_SHORT TOKYO_R30_DIR TOKYO_R30_LONG TOKYO_R30_SHORT TOKYO_LAND CMA_LAT CMA_LON CMA_CAT CMA_WIND CMA_PRES HKO_LAT HKO_LON HKO_CAT HKO_WIND HKO_PRES NEWDELHI_LAT NEWDELHI_LON NEWDELHI_GRADE NEWDELHI_WIND NEWDELHI_PRES NEWDELHI_CI NEWDELHI_DP NEWDELHI_POCI REUNION_LAT REUNION_LON REUNION_TYPE REUNION_WIND REUNION_PRES REUNION_TNUM REUNION_CI REUNION_RMW REUNION_R34_NE REUNION_R34_SE REUNION_R34_SW REUNION_R34_NW REUNION_R50_NE REUNION_R50_SE REUNION_R50_SW REUNION_R50_NW REUNION_R64_NE REUNION_R64_SE REUNION_R64_SW REUNION_R64_NW BOM_LAT BOM_LON BOM_TYPE BOM_WIND BOM_PRES BOM_TNUM BOM_CI BOM_RMW BOM_R34_NE BOM_R34_SE BOM_R34_SW BOM_R34_NW BOM_R50_NE BOM_R50_SE BOM_R50_SW BOM_R50_NW BOM_R64_NE BOM_R64_SE BOM_R64_SW BOM_R64_NW BOM_ROCI BOM_POCI BOM_EYE BOM_POS_METHOD BOM_PRES_METHOD NADI_LAT NADI_LON NADI_CAT NADI_WIND NADI_PRES WELLINGTON_LAT WELLINGTON_LON WELLINGTON_WIND WELLINGTON_PRES DS824_LAT DS824_LON DS824_STAGE DS824_WIND DS824_PRES TD9636_LAT TD9636_LON TD9636_STAGE TD9636_WIND TD9636_PRES TD9635_LAT TD9635_LON TD9635_WIND TD9635_PRES TD9635_ROCI NEUMANN_LAT NEUMANN_LON NEUMANN_CLASS NEUMANN_WIND NEUMANN_PRES MLC_LAT MLC_LON MLC_CLASS MLC_WIND MLC_PRES USA_GUST BOM_GUST BOM_GUST_PER REUNION_GUST REUNION_GUST_PER USA_SEAHGT USA_SEARAD_NE USA_SEARAD_SE USA_SEARAD_SW USA_SEARAD_NW STORM_SPEED STORM_DIR
2009107S07133 2009 23 SI WA KIRRILY 2009-04-17 06:00:00 NR -7.30000 133.300 20 1005 bom main 95 95 ______O_______ -1 -7.30000 133.300 20 20 1005 1.00000 1.00000 45 45 3 258
2009107S07133 2009 23 SI WA KIRRILY 2009-04-17 09:00:00 NR -7.33000 133.162 main 104 104 ______P_______ -1 -7.33000 133.162 20 20 1006 3 251
2009107S07133 2009 23 SI WA KIRRILY 2009-04-17 12:00:00 NR -7.40000 133.000 20 1007 bom main 129 125 ______O_______ -1 -7.40000 133.000 20 20 1007 1.00000 1.00000 45 45 4 240
2009107S07133 2009 23 SI WA KIRRILY 2009-04-17 15:00:00 NR -7.53501 132.800 main 125 110 ______P_______ -1 -7.53501 132.800 20 20 1007 5 233
2009107S07133 2009 23 SI WA KIRRILY 2009-04-17 18:00:00 NR -7.70000 132.600 20 1007 bom main 110 99 ______O_______ -1 -7.70000 132.600 20 20 1007 1.00000 1.00000 45 45 5 228
2009107S07133 2009 23 SI WA KIRRILY 2009-04-17 21:00:00 NR -7.84248 132.450 main 91 89 ______P_______ -1 -7.84248 132.450 20 20 1007 4 224
2009107S07133 2009 23 SI WA KIRRILY 2009-04-18 00:00:00 NR -8.00000 132.300 20 1008 bom main 89 84 ______O_______ -1 -8.00000 132.300 20 20 1008 1.00000 1.00000 45 45 5 221
2009107S07133 2009 23 SI WA KIRRILY 2009-04-18 03:00:00 NR -8.23000 132.108 main 84 78 ______P_______ -1 -8.23000 132.108 20 20 1007 6 225
2009107S07133 2009 23 SI WA KIRRILY 2009-04-18 06:00:00 NR -8.40000 131.900 20 1006 bom main 78 62 ______O_______ -1 -8.40000 131.900 20 20 1006 1.00000 1.00000 45 45 4 247
2009107S07133 2009 23 SI WA KIRRILY 2009-04-18 09:00:00 NR -8.39498 131.707 main 62 40 ______P_______ -1 -8.39498 131.707 20 20 1007 4 284
2009107S07133 2009 23 SI WA KIRRILY 2009-04-18 12:00:00 NR -8.30000 131.500 20 1008 bom main 40 22 ______O_______ -1 -8.30000 131.500 20 20 1008 1.00000 1.00000 45 45 5 292
2009107S07133 2009 23 SI WA KIRRILY 2009-04-18 15:00:00 NR -8.21501 131.250 main 22 11 ______P_______ -1 -8.21501 131.250 20 20 1007 5 292
2009107S07133 2009 23 SI WA KIRRILY 2009-04-18 18:00:00 NR -8.10000 131.000 20 1007 bom main 15 15 ______O_______ -1 -8.10000 131.000 20 20 1007 1.00000 1.00000 45 45 5 301
2009107S07133 2009 23 SI WA KIRRILY 2009-04-18 21:00:00 NR -7.94249 130.785 main 33 33 ______P_______ -1 -7.94249 130.785 20 22 1007 5 307
2009107S07133 2009 23 SI WA KIRRILY 2009-04-19 00:00:00 NR -7.80000 130.600 25 1008 bom main 55 55 ______O_______ -1 -7.80000 130.600 20 25 1008 1.50000 1.50000 45 45 4 302
2009107S07133 2009 23 SI WA KIRRILY 2009-04-19 03:00:00 NR -7.72749 130.443 main 78 78 ______P_______ -1 -7.72749 130.443 20 25 1006 3 289
2009107S07133 2009 23 SI WA KIRRILY 2009-04-19 06:00:00 NR -7.70000 130.300 25 1005 bom main 88 88 ______O_______ -1 -7.70000 130.300 20 25 1005 1.50000 1.50000 45 45 3 275
2009107S07133 2009 23 SI WA KIRRILY 2009-04-19 09:00:00 NR -7.69999 130.150 main 99 99 ______P_______ -1 -7.69999 130.150 20 22 1006 3 270
2009107S07133 2009 23 SI WA KIRRILY 2009-04-19 12:00:00 NR -7.70000 130.000 20 1007 bom main 121 121 ______O_______ -1 -7.70000 130.000 20 20 1007 1.00000 1.50000 45 45 3 276
2009107S07133 2009 23 SI WA KIRRILY 2009-04-19 15:00:00 NR -7.66501 129.835 main 143 143 ______P_______ -1 -7.66501 129.835 20 20 1006 3 289
2009107S07133 2009 23 SI WA KIRRILY 2009-04-19 18:00:00 NR -7.60000 129.700 20 1006 bom main 156 156 ______O_______ -1 -7.60000 129.700 20 20 1006 1.00000 1.50000 45 45 3 302
2009107S07133 2009 23 SI WA KIRRILY 2009-04-19 21:00:00 NR -7.52249 129.605 main 168 168 ______P_______ -1 -7.52249 129.605 20 22 1006 2 333
2009107S07133 2009 23 SI WA KIRRILY 2009-04-20 00:00:00 NR -7.40000 129.600 25 1007 bom main 171 168 ______O_______ -1 -7.40000 129.600 20 25 1007 1.50000 1.50000 45 45 3 12
2009107S07133 2009 23 SI WA KIRRILY 2009-04-20 03:00:00 NR -7.18493 129.675 main 168 154 ______P_______ -1 -7.18493 129.675 20 25 1005 5 37
2009107S07133 2009 23 SI WA KIRRILY 2009-04-20 06:00:00 NR -7.00000 129.900 25 1004 bom main 154 114 ______O_______ -1 -7.00000 129.900 20 25 1004 1.50000 1.50000 45 45 7 71
2009107S07133 2009 23 SI WA KIRRILY 2009-04-20 09:00:00 NR -6.97010 130.320 main 114 71 ______P_______ -1 -6.97010 130.320 20 22 1005 9 90
2009107S07133 2009 23 SI WA KIRRILY 2009-04-20 12:00:00 NR -7.00000 130.800 20 1006 bom main 71 47 ______O_______ -1 -7.00000 130.800 20 20 1006 1.00000 1.50000 45 45 9 92
2009107S07133 2009 23 SI WA KIRRILY 2009-04-20 15:00:00 NR -6.99997 131.180 main 47 24 ______P_______ -1 -6.99997 131.180 20 20 1005 7 90
2009107S07133 2009 23 SI WA KIRRILY 2009-04-20 18:00:00 NR -7.00000 131.500 20 1005 bom main 24 22 ______O_______ -1 -7.00000 131.500 20 20 1005 1.00000 1.50000 45 45 6 89
2009107S07133 2009 23 SI WA KIRRILY 2009-04-20 21:00:00 NR -6.99246 131.765 main 24 24 ______P_______ -1 -6.99246 131.765 20 22 1006 5 90
2009107S07133 2009 23 SI WA KIRRILY 2009-04-21 00:00:00 NR -7.00000 132.000 25 1007 bom main 39 39 ______O_______ -1 -7.00000 132.000 20 25 1007 1.50000 1.50000 45 45 5 96
2009107S07133 2009 23 SI WA KIRRILY 2009-04-21 03:00:00 NR -7.04251 132.265 main 69 67 ______P_______ -1 -7.04251 132.265 20 25 1005 5 101
2009107S07133 2009 23 SI WA KIRRILY 2009-04-21 06:00:00 NR -7.10000 132.500 25 1004 bom main 89 89 ______O_______ -1 -7.10000 132.500 20 25 1004 1.50000 1.50000 45 45 4 106
2009107S07133 2009 23 SI WA KIRRILY 2009-04-21 09:00:00 NR -7.15748 132.673 main 110 110 ______P_______ -1 -7.15748 132.673 20 22 1005 3 109
2009107S07133 2009 23 SI WA KIRRILY 2009-04-21 12:00:00 NR -7.20000 132.800 20 1006 bom main 121 121 ______O_______ -1 -7.20000 132.800 20 20 1006 1.00000 1.50000 45 45 2 100
2009107S07133 2009 23 SI WA KIRRILY 2009-04-21 15:00:00 NR -7.19999 132.908 main 129 119 ______P_______ -1 -7.19999 132.908 20 20 1006 2 90
2009107S07133 2009 23 SI WA KIRRILY 2009-04-21 18:00:00 NR -7.20000 133.000 20 1006 bom main 119 109 ______O_______ -1 -7.20000 133.000 20 20 1006 1.00000 1.50000 45 45 2 102
2009107S07133 2009 23 SI WA KIRRILY 2009-04-21 21:00:00 NR -7.24250 133.115 main 109 104 ______P_______ -1 -7.24250 133.115 20 20 1006 2 117
2009107S07133 2009 23 SI WA KIRRILY 2009-04-22 00:00:00 NR -7.30000 133.200 20 1007 bom main 104 104 ______O_______ -1 -7.30000 133.200 20 20 1007 1.00000 1.00000 45 45 2 135
2009107S07133 2009 23 SI WA KIRRILY 2009-04-22 03:00:00 NR -7.34999 133.230 main 104 104 ______P_______ -1 -7.34999 133.230 20 22 1006 1 0
2009107S07133 2009 23 SI WA KIRRILY 2009-04-22 06:00:00 NR -7.40000 133.200 25 1005 bom main 111 111 ______O_______ -1 -7.40000 133.200 20 25 1005 1.50000 1.50000 45 45 2 229
2009107S07133 2009 23 SI WA KIRRILY 2009-04-22 09:00:00 NR -7.45001 133.108 main 126 126 ______P_______ -1 -7.45001 133.108 20 22 1006 2 243
2009107S07133 2009 23 SI WA KIRRILY 2009-04-22 12:00:00 NR -7.50000 133.000 20 1007 bom main 135 135 ______O_______ -1 -7.50000 133.000 20 20 1007 1.00000 1.50000 45 45 2 241
2009107S07133 2009 23 SI WA KIRRILY 2009-04-22 15:00:00 NR -7.54250 132.935 main 136 136 ______P_______ -1 -7.54250 132.935 20 22 1006 1 223
2009107S07133 2009 23 SI WA KIRRILY 2009-04-22 18:00:00 NR -7.60000 132.900 25 1006 bom main 139 139 ______O_______ -1 -7.60000 132.900 20 25 1006 1.50000 1.50000 45 45 2 199
2009107S07133 2009 23 SI WA KIRRILY 2009-04-22 21:00:00 NR -7.69250 132.885 main 143 143 ______P_______ -1 -7.69250 132.885 20 25 1006 2 172
2009107S07133 2009 23 SI WA KIRRILY 2009-04-23 00:00:00 NR -7.80000 132.900 25 1007 bom main 145 145 ______O_______ -1 -7.80000 132.900 20 25 1007 1.50000 1.50000 45 45 2 163
2009107S07133 2009 23 SI WA KIRRILY 2009-04-23 03:00:00 NR -7.89250 132.935 main 147 147 ______P_______ -1 -7.89250 132.935 20 25 1006 1 156
2009107S07133 2009 23 SI WA KIRRILY 2009-04-23 06:00:00 NR -7.92000 132.960 25 1006 bom main 158 158 O_____O_______ jtwc_sh SH272009 -7.60000 132.800 DB 15 1010 -3 -8.00000 133.000 20 25 1006 1.50000 1.50000 45 45 2 161
2009107S07133 2009 23 SI WA KIRRILY 2009-04-23 09:00:00 NR -8.06833 132.988 main 164 164 P_____P_______ SH272009 -7.90500 132.793 DB 15 1010 -3 -8.15000 133.085 20 22 1007 3 168
2009107S07133 2009 23 SI WA KIRRILY 2009-04-23 12:00:00 NR -8.25714 133.029 20 1008 bom main 173 173 O_____O_______ jtwc_sh SH272009 -8.20000 132.800 DB 15 1010 -3 -8.30000 133.200 20 20 1008 1.00000 1.50000 45 45 4 166
2009107S07133 2009 23 SI WA KIRRILY 2009-04-23 15:00:00 NR -8.43624 133.081 main 188 188 P_____P_______ SH272009 -8.47250 132.835 DB 15 1010 -3 -8.39998 133.328 20 22 1008 4 154
2009107S07133 2009 23 SI WA KIRRILY 2009-04-23 18:00:00 NR -8.60000 133.200 25 1008 bom main 208 208 O_____O_______ jtwc_sh SH272009 -8.70000 132.900 DB 15 1010 -3 -8.50000 133.500 20 25 1008 1.50000 1.50000 45 45 4 140
2009107S07133 2009 23 SI WA KIRRILY 2009-04-23 21:00:00 NR -8.76500 133.360 main 230 226 P_____P_______ SH272009 -8.86499 132.985 DB 15 1010 -3 -8.66501 133.735 20 22 1008 5 131
2009107S07133 2009 23 SI WA KIRRILY 2009-04-24 00:00:00 NR -8.90000 133.550 20 1008 bom main 233 233 O_____O_______ jtwc_sh SH272009 -9.00000 133.100 DB 15 1010 -3 -8.80000 134.000 20 20 1008 1.00000 1.00000 45 45 4 122
2009107S07133 2009 23 SI WA KIRRILY 2009-04-24 03:00:00 NR -8.99749 133.743 main 241 237 P_____P_______ SH272009 -9.17246 133.220 DB 15 1010 -3 -8.82251 134.265 20 20 1007 4 111
2009107S07133 2009 23 SI WA KIRRILY 2009-04-24 06:00:00 NR -9.05000 133.950 20 1006 bom main 236 236 O_____O_______ jtwc_sh SH272009 -9.30000 133.400 DB 15 1010 -3 -8.80000 134.500 20 20 1006 1.00000 1.00000 45 45 4 101
2009107S07133 2009 23 SI WA KIRRILY 2009-04-24 09:00:00 NR -9.07623 134.167 main 246 246 P_____P_______ SH272009 -9.33748 133.662 DB 15 1010 -3 -8.81498 134.672 20 20 1007 4 90
2009107S07133 2009 23 SI WA KIRRILY 2009-04-24 12:00:00 NR -9.05000 134.400 20 1008 bom main 236 236 O_____O_______ jtwc_sh SH272009 -9.30000 134.000 DB 15 1010 -3 -8.80000 134.800 20 20 1008 1.00000 1.00000 45 45 5 80
2009107S07133 2009 23 SI WA KIRRILY 2009-04-24 15:00:00 NR -8.98754 134.665 main 241 233 P_____P_______ SH272009 -9.25258 134.415 DB 17 1008 -3 -8.72250 134.915 20 22 1007 5 68
2009107S07133 2009 23 SI WA KIRRILY 2009-04-24 18:00:00 NR -8.85000 134.900 25 1007 bom main 226 209 O_____O_______ jtwc_sh SH272009 -9.10000 134.800 DB 20 1007 -3 -8.60000 135.000 20 25 1007 1.00000 1.00000 45 45 5 43
2009107S07133 2009 23 SP EA KIRRILY 2009-04-24 21:00:00 NR -8.60370 135.033 main 209 195 P_____P_______ SH272009 -8.75741 135.023 DB 22 1005 -3 -8.44999 135.042 20 22 1007 6 26
2009107S07133 2009 23 SP EA KIRRILY 2009-04-25 00:00:00 NR -8.35000 135.150 20 1008 bom main 189 185 O_____O_______ jtwc_sh SH272009 -8.40000 135.200 DB 25 1004 -3 -8.30000 135.100 20 20 1008 1.00000 1.00000 45 45 5 38
2009107S07133 2009 23 SP EA KIRRILY 2009-04-25 03:00:00 NR -8.19877 135.354 main 191 189 P_____P_______ SH272009 -8.21253 135.465 DB 25 1004 -3 -8.18501 135.243 20 22 5 58
2009107S07133 2009 23 SP EA KIRRILY 2009-04-25 06:00:00 TS -8.10000 135.550 25 bom main 196 188 O_____O_______ jtwc_sh SH272009 -8.10000 135.700 TD 25 1004 -1 -8.10000 135.400 20 25 1.50000 1.50000 45 45 4 59
2009107S07133 2009 23 SP EA KIRRILY 2009-04-25 09:00:00 TS -8.00998 135.665 main 196 196 P_____P_______ SH272009 -7.97747 135.822 TD 25 1004 -1 -8.04249 135.507 20 25 2 53
2009107S07133 2009 23 SP EA KIRRILY 2009-04-25 12:00:00 TS -7.95000 135.750 25 bom main 196 195 O_____O_______ jtwc_sh SH272009 -7.90000 135.900 TD 25 1004 -1 -8.00000 135.600 20 25 2.00000 2.00000 45 45 2 62
2009107S07133 2009 23 SP EA KIRRILY 2009-04-25 15:00:00 TS -7.90148 135.871 main 195 195 P_____P_______ SH272009 -7.84546 136.020 TD 25 1004 -1 -7.95750 135.723 20 25 2 76
2009107S07133 2009 23 SP EA KIRRILY 2009-04-25 18:00:00 TS -7.90000 135.950 25 bom main 184 184 O_____O_______ jtwc_sh SH272009 -7.90000 136.100 TD 25 1004 -1 1008 150 45 -7.90000 135.800 20 25 2.00000 2.00000 45 45 1 115
2009107S07133 2009 23 SP EA KIRRILY 2009-04-25 21:00:00 TS -7.94317 135.961 main 184 184 V_____P_______ jtwc_sh SH272009 -8.10000 136.100 TD 25 1004 -1 1008 150 45 -7.78633 135.822 20 27 2 288
2009107S07133 2009 23 SP EA KIRRILY 2009-04-26 00:00:00 TS -7.85000 135.800 30 1004 bom main 189 165 O_____O_______ jtwc_sh SH272009 -8.00000 135.900 TD 30 1000 -1 1008 150 45 -7.70000 135.700 20 30 1004 2.50000 2.50000 150 1012 45 45 5 293
2009107S07133 2009 23 SP EA KIRRILY 2009-04-26 03:00:00 TS -7.75343 135.503 30 1004 bom main 165 125 P_____O_______ SH272009 -7.80685 135.607 TD 30 1000 -1 1008 150 45 -7.70000 135.400 20 30 1004 179 1012 45 45 7 297
2009107S07133 2009 23 SP EA KIRRILY 2009-04-26 06:00:00 TS -7.55000 135.200 30 1003 bom main 118 102 O_____O_______ jtwc_sh SH272009 -7.60000 135.300 TD 30 1000 -1 1008 150 45 -7.50000 135.100 20 30 1003 2.50000 2.50000 179 1010 45 45 5 300
2009107S07133 2009 23 SP EA KIRRILY 2009-04-26 09:00:00 TS -7.49248 135.043 30 1002 bom main 102 86 P_____O_______ SH272009 -7.48497 135.085 TD 30 1000 -1 1008 150 45 -7.50000 135.000 20 30 1002 2.50000 2.50000 150 1010 45 45 3 297
2009107S07133 2009 23 SI WA KIRRILY 2009-04-26 12:00:00 TS -7.40000 134.900 35 999 bom main 86 65 O_____O_______ jtwc_sh SH272009 -7.40000 134.900 TD 30 1000 -1 1008 150 45 -7.40000 134.900 30 35 999 3.00000 3.00000 30 59 59 30 150 1010 49 49 4 302
2009107S07133 2009 23 SI WA KIRRILY 2009-04-26 15:00:00 TS -7.30751 134.739 35 999 bom main 65 49 P_____O_______ SH272009 -7.31501 134.678 TD 32 998 -1 1008 150 45 -7.30000 134.800 30 35 999 3.00000 3.00000 30 59 59 30 119 1010 49 49 4 300
2009107S07133 2009 23 SI WA KIRRILY 2009-04-26 18:00:00 TS -7.20000 134.550 35 bom main 49 24 O_____O_______ jtwc_sh SH272009 -7.20000 134.500 TS 35 996 0 1008 150 45 -7.20000 134.600 30 35 3.00000 3.00000 30 59 59 30 119 1010 49 49 4 322
2009107S07133 2009 23 SI WA KIRRILY 2009-04-26 21:00:00 TS -6.96124 134.471 35 bom main 24 0 P_____V_______ SH272009 -7.02248 134.443 TS 35 996 0 1008 150 45 -6.90000 134.500 30 35 30 59 59 30 119 1010 49 49 5 342
2009107S07133 2009 23 SI WA KIRRILY 2009-04-27 00:00:00 TS -6.75000 134.400 35 bom main 0 0 O_____V_______ jtwc_sh SH272009 -6.80000 134.400 TS 35 996 0 1008 150 45 -6.70000 134.400 30 35 3.00000 3.00000 30 59 59 30 119 1010 49 49 4 340
2009107S07133 2009 23 SI WA KIRRILY 2009-04-27 03:00:00 TS -6.56751 134.329 35 bom main 0 0 P_____O_______ SH272009 -6.53501 134.257 TS 40 992 0 1008 95 35 -6.60000 134.400 30 35 3.00000 3.00000 30 30 59 59 30 119 1010 49 49 4 334
2009107S07133 2009 23 SI WA KIRRILY 2009-04-27 06:00:00 TS -6.35000 134.200 35 bom main 0 0 O_____O_______ jtwc_sh SH272009 -6.30000 134.100 TS 45 989 0 20 10 15 25 1008 40 25 -6.40000 134.300 30 35 3.00000 3.00000 30 30 59 59 30 119 1010 49 49 5 330
2009107S07133 2009 23 SI WA KIRRILY 2009-04-27 09:00:00 TS -6.17749 134.100 35 bom main 11 11 P_____V_______ SH272009 -6.15499 134.000 TS 45 989 0 20 10 15 25 1008 40 25 -6.20000 134.200 30 35 3.00000 3.00000 30 59 59 59 30 119 1010 49 49 3 315
2009107S07133 2009 23 SI WA KIRRILY 2009-04-27 12:00:00 TS -6.15000 134.000 35 bom main 22 15 O_____V_______ jtwc_sh SH272009 -6.10000 133.900 TS 45 989 0 20 10 15 25 1008 40 25 -6.20000 134.100 30 35 3.00000 3.00000 30 59 59 59 30 119 1010 49 49 3 271
2009107S07133 2009 23 SI WA KIRRILY 2009-04-27 15:00:00 TS -6.17125 133.825 35 bom main 35 35 P_____V_______ SH272009 -6.14251 133.750 TS 40 992 0 20 10 15 25 1008 95 22 -6.20000 133.900 30 35 3.00000 3.00000 30 59 59 30 30 119 1010 49 49 3 270
2009107S07133 2009 23 SI WA KIRRILY 2009-04-27 18:00:00 TS -6.15000 133.700 35 bom main 49 49 O_____O_______ jtwc_sh SH272009 -6.20000 133.600 TS 35 996 0 20 10 15 25 1008 150 20 -6.10000 133.800 30 35 3.00000 3.00000 30 30 59 59 119 1010 49 49 3 278
2009107S07133 2009 23 SI WA KIRRILY 2009-04-27 21:00:00 TS -6.13249 133.550 35 bom main 59 59 P_____V_______ SH272009 -6.16499 133.500 TS 35 996 0 20 10 15 25 1008 150 20 -6.10000 133.600 30 35 2.50000 3.00000 30 30 59 59 104 1010 49 49 3 289
2009107S07133 2009 23 SI WA KIRRILY 2009-04-28 00:00:00 TS -6.05000 133.400 35 999 bom main 84 80 O_____O_______ jtwc_sh SH272009 -6.10000 133.400 TS 35 996 0 20 10 15 25 1008 150 20 -6.00000 133.400 30 35 999 2.50000 3.00000 30 30 59 59 90 1010 49 49 3 298
2009107S07133 2009 23 SI WA KIRRILY 2009-04-28 03:00:00 TS -5.98626 133.271 35 1002 bom main 94 94 P_____V_______ SH272009 -6.07251 133.243 TS 35 996 0 20 10 15 25 1008 182 27 -5.90000 133.300 21 35 1002 2.00000 2.50000 59 59 90 1010 49 49 4 300
2009107S07133 2009 23 SI WA KIRRILY 2009-04-28 06:00:00 TS -5.85000 133.050 30 1002 bom main 124 119 O_____O_______ jtwc_sh SH272009 -6.00000 133.100 TS 35 996 0 20 10 15 25 1009 215 35 -5.70000 133.000 20 30 1002 2.00000 2.50000 90 1010 45 45 4 329
2009107S07133 2009 23 SI WA KIRRILY 2009-04-28 09:00:00 TS -5.65750 133.071 30 1004 bom main 129 129 P_____O_______ SH272009 -5.81499 133.043 TS 32 998 -1 1008 187 35 -5.50000 133.100 20 30 1004 2.00000 2.50000 1012 45 45 4 8
2009107S07133 2009 23 SI WA KIRRILY 2009-04-28 12:00:00 TS -5.50000 133.100 30 1004 bom main 139 139 O_____O_______ jtwc_sh SH272009 -5.60000 133.000 TD 30 1000 -1 1008 160 35 -5.40000 133.200 20 30 1004 2.00000 2.00000 1012 45 45 2 356
2009107S07133 2009 23 SI WA KIRRILY 2009-04-28 15:00:00 TS -5.44875 133.050 25 1007 bom main 144 145 P_____O_______ SH272009 -5.39751 132.900 TD 30 1000 -1 1009 130 42 -5.50000 133.200 20 25 1007 1.50000 2.00000 1012 45 45 1 320
2009107S07133 2009 23 SI WA KIRRILY 2009-04-28 18:00:00 TS -5.41429 133.029 25 1006 bom main 145 134 O_____O_______ jtwc_sh SH272009 -5.30000 132.800 TD 30 1000 -1 1010 100 50 -5.50000 133.200 20 25 1006 1.50000 2.00000 1012 45 45 1 329
2009107S07133 2009 23 SI WA KIRRILY 2009-04-28 21:00:00 TS -5.33083 132.979 25 1006 bom main 134 134 P_____O_______ SH272009 -5.39250 132.738 TD 25 1003 -1 -5.30000 133.100 20 25 1006 2.00000 2.00000 1012 45 45 2 325
2009107S07133 2009 23 SI WA KIRRILY 2009-04-29 00:00:00 NR -5.28000 132.940 25 1007 bom main 134 112 O_____O_______ jtwc_sh SH272009 -5.60000 132.700 DB 20 1007 -3 -5.20000 133.000 20 25 1007 2.00000 2.00000 1012 45 45 3 323
2009107S07133 2009 23 SI WA KIRRILY 2009-04-29 03:00:00 NR -5.10000 132.800 25 1007 bom main 112 112 ______O_______ SH272009 DB -3 -5.10000 132.800 20 25 1007 1.50000 1.50000 1012 45 45 3 307
2009107S07133 2009 23 SI WA KIRRILY 2009-04-29 06:00:00 NR -5.10000 132.700 25 1007 bom main 114 114 ______O_______ -1 -5.10000 132.700 20 25 1007 1.50000 1.50000 1012 45 45 2 268
2009107S07133 2009 23 SI WA KIRRILY 2009-04-29 09:00:00 NR -5.10682 132.593 main 116 116 ______P_______ -1 -5.10682 132.593 20 22 1008 1012 2 270
2009107S07133 2009 23 SI WA KIRRILY 2009-04-29 12:00:00 NR -5.10000 132.500 20 1009 bom main 120 120 ______O_______ -1 -5.10000 132.500 20 20 1009 1.00000 1.00000 1012 45 45 1 293
2009107S07133 2009 23 SI WA KIRRILY 2009-04-29 15:00:00 NR -5.04999 132.458 main 110 110 ______P_______ -1 -5.04999 132.458 20 20 1009 1012 1 317
2009107S07133 2009 23 SI WA KIRRILY 2009-04-29 18:00:00 NR -5.00000 132.400 20 1009 bom main 115 115 ______O_______ -1 -5.00000 132.400 20 20 1009 1.00000 1.00000 1012 45 45 2 293
2009107S07133 2009 23 SI WA KIRRILY 2009-04-29 21:00:00 NR -4.97273 132.274 main 120 120 ______P_______ -1 -4.97273 132.274 20 20 1009 1012 3 270
2009107S07133 2009 23 SI WA KIRRILY 2009-04-30 00:00:00 NR -5.00000 132.100 20 1009 bom main 134 134 ______O_______ -1 -5.00000 132.100 20 20 1009 1.00000 1.00000 1012 45 45 4 251
2009107S07133 2009 23 SI WA KIRRILY 2009-04-30 03:00:00 NR -5.10000 131.900 20 bom main 157 157 ______O_______ -1 -5.10000 131.900 20 20 4 256
2009107S07133 2009 23 SI WA KIRRILY 2009-04-30 06:00:00 NR -5.10000 131.700 25 bom main 161 150 ______O_______ -1 -5.10000 131.700 20 25 1.50000 1.50000 4 270
2009107S07133 2009 23 SI WA KIRRILY 2009-04-30 09:00:00 NR -5.10000 131.533 main 150 145 ______P_______ -1 -5.10000 131.533 20 25 3 270
2009107S07133 2009 23 SI WA KIRRILY 2009-04-30 12:00:00 NR -5.10000 131.400 25 bom main 145 141 ______O_______ -1 -5.10000 131.400 20 25 1.00000 1.50000 2 272
2009107S07133 2009 23 SI WA KIRRILY 2009-04-30 15:00:00 NR -5.09249 131.292 main 141 138 ______P_______ -1 -5.09249 131.292 20 25 2 270
2009107S07133 2009 23 SI WA KIRRILY 2009-04-30 18:00:00 NR -5.10000 131.200 25 bom main 138 136 ______O_______ -1 -5.10000 131.200 20 25 1.50000 1.50000 2 257
2009107S07133 2009 23 SI WA KIRRILY 2009-04-30 21:00:00 NR -5.13295 131.120 main 136 136 ______P_______ -1 -5.13295 131.120 20 25 2 243
2009107S07133 2009 23 SI WA KIRRILY 2009-05-01 00:00:00 NR -5.20000 131.000 25 bom main 146 145 ______O_______ -1 -5.20000 131.000 20 25 1.50000 1.50000 4 242
2009107S07133 2009 23 SI WA KIRRILY 2009-05-01 03:00:00 NR -5.30000 130.800 25 bom main 157 138 ______O_______ -1 -5.30000 130.800 20 25 5 281
2009107S07133 2009 23 SI WA KIRRILY 2009-05-01 06:00:00 NR -5.10000 130.500 25 bom main 141 ______O_______ -1 -5.10000 130.500 20 25 1.50000 1.50000 7 304

About IBTrACS Database

This database is a web-friendly format of International Best Track Archive for Climate Stewardship (IBTrACS), a global best track data archive curated by NOAA dating back to 1842.

Updated: 2021-12-08